createdAt,value
2018-08-02T00:00:35.025Z,2.50
2018-08-02T00:03:05.633Z,2.40
2018-08-02T00:05:36.356Z,2.50
2018-08-02T00:08:06.923Z,2.27
2018-08-02T00:10:37.738Z,2.67
2018-08-02T00:13:08.781Z,3.20
2018-08-02T00:15:39.400Z,2.10
2018-08-02T00:18:10.050Z,3.30
2018-08-02T00:20:40.659Z,2.97
2018-08-02T00:23:10.816Z,3.07
2018-08-02T00:25:41.321Z,2.60
2018-08-02T00:28:11.752Z,2.37
2018-08-02T00:30:42.381Z,3.30
2018-08-02T00:33:12.604Z,2.57
2018-08-02T00:35:42.935Z,2.73
2018-08-02T00:38:13.734Z,2.70
2018-08-02T00:40:44.228Z,2.30
2018-08-02T00:43:14.782Z,2.37
2018-08-02T00:45:45.324Z,3.27
2018-08-02T00:48:16.513Z,2.90
2018-08-02T00:50:47.205Z,2.60
2018-08-02T00:53:17.691Z,2.47
2018-08-02T00:55:48.537Z,2.40
2018-08-02T00:58:19.940Z,3.17
2018-08-02T01:00:50.472Z,2.87
2018-08-02T01:03:21.166Z,2.70
2018-08-02T01:05:51.851Z,2.50
2018-08-02T01:08:22.541Z,2.93
2018-08-02T01:10:53.170Z,2.70
2018-08-02T01:13:23.612Z,2.30
2018-08-02T01:15:54.270Z,2.80
2018-08-02T01:18:25.801Z,2.43
2018-08-02T01:20:56.753Z,2.33
2018-08-02T01:23:27.580Z,2.53
2018-08-02T01:25:58.204Z,2.73
2018-08-02T01:28:28.944Z,2.03
2018-08-02T01:30:59.445Z,3.03
2018-08-02T01:33:30.258Z,2.63
2018-08-02T01:36:00.856Z,2.60
2018-08-02T01:38:31.207Z,2.87
2018-08-02T01:41:01.665Z,2.17
2018-08-02T01:43:32.242Z,2.60
2018-08-02T01:46:02.431Z,2.57
2018-08-02T01:48:32.986Z,3.20
2018-08-02T01:51:03.586Z,2.70
2018-08-02T01:53:34.131Z,2.70
2018-08-02T01:56:04.876Z,3.13
2018-08-02T01:58:36.126Z,3.07
2018-08-02T02:01:07.224Z,2.90
2018-08-02T02:03:37.892Z,2.30
2018-08-02T02:06:08.436Z,2.17
2018-08-02T02:08:39.296Z,2.23
2018-08-02T02:11:09.870Z,3.00
2018-08-02T02:13:40.421Z,3.00
2018-08-02T02:16:10.960Z,2.70
2018-08-02T02:18:41.415Z,2.20
2018-08-02T02:21:11.920Z,2.97
2018-08-02T02:23:42.656Z,2.83
2018-08-02T02:26:13.275Z,2.67
2018-08-02T02:28:43.744Z,2.60
2018-08-02T02:31:14.403Z,2.80
2018-08-02T02:33:45.344Z,2.80
2018-08-02T02:36:15.972Z,3.00
2018-08-02T02:38:46.532Z,2.37
2018-08-02T02:41:17.144Z,2.97
2018-08-02T02:43:47.724Z,2.23
2018-08-02T02:46:18.422Z,2.33
2018-08-02T02:48:49.082Z,2.80
2018-08-02T02:51:19.573Z,2.33
2018-08-02T02:53:49.836Z,2.80
2018-08-02T02:56:20.371Z,2.33
2018-08-02T02:58:50.839Z,2.30
2018-08-02T03:01:21.577Z,2.10
2018-08-02T03:03:52.565Z,3.20
2018-08-02T03:06:23.064Z,2.13
2018-08-02T03:08:53.577Z,2.77
2018-08-02T03:11:24.300Z,2.50
2018-08-02T03:13:54.760Z,2.13
2018-08-02T03:16:25.317Z,2.93
2018-08-02T03:18:55.782Z,2.10
2018-08-02T03:21:26.482Z,2.27
2018-08-02T03:23:57.066Z,2.20
2018-08-02T03:26:27.598Z,2.60
2018-08-02T03:28:57.868Z,2.30
2018-08-02T03:31:28.409Z,2.83
2018-08-02T03:33:59.111Z,2.23
2018-08-02T03:36:29.667Z,2.50
2018-08-02T03:39:00.253Z,2.40
2018-08-02T03:41:30.727Z,2.43
2018-08-02T03:44:02.031Z,2.63
2018-08-02T03:46:32.548Z,3.43
2018-08-02T03:49:02.948Z,2.40
2018-08-02T03:51:33.601Z,3.00
2018-08-02T03:54:04.585Z,2.10
2018-08-02T03:56:35.148Z,2.67
2018-08-02T03:59:05.669Z,2.60
2018-08-02T04:01:36.097Z,2.47
2018-08-02T04:04:06.784Z,2.10
2018-08-02T04:06:37.271Z,2.90
2018-08-02T04:09:10.434Z,3.03
2018-08-02T04:11:41.193Z,2.93
2018-08-02T04:14:11.771Z,2.63
2018-08-02T04:16:42.643Z,2.30
2018-08-02T04:19:13.649Z,2.50
2018-08-02T04:21:44.128Z,3.00
2018-08-02T04:24:14.788Z,2.50
2018-08-02T04:26:45.345Z,2.63
2018-08-02T04:29:15.917Z,3.13
2018-08-02T04:31:50.664Z,3.00
2018-08-02T04:34:21.698Z,2.47
2018-08-02T04:36:52.385Z,2.67
2018-08-02T04:39:23.007Z,2.63
2018-08-02T04:41:53.720Z,2.80
2018-08-02T04:44:24.463Z,2.53
2018-08-02T04:46:55.516Z,2.27
2018-08-02T04:49:29.098Z,2.50
2018-08-02T04:51:59.462Z,2.03
2018-08-02T04:54:30.219Z,2.40
2018-08-02T04:57:00.984Z,2.57
2018-08-02T04:59:31.461Z,2.63
2018-08-02T05:02:02.168Z,2.67
2018-08-02T05:04:32.793Z,2.53
2018-08-02T05:07:03.344Z,2.43
2018-08-02T05:09:33.956Z,2.20
2018-08-02T05:12:04.634Z,2.60
2018-08-02T05:14:35.049Z,2.10
2018-08-02T05:17:05.816Z,2.60
2018-08-02T05:19:36.496Z,2.20
2018-08-02T05:22:07.184Z,2.37
2018-08-02T05:24:38.360Z,2.40
2018-08-02T05:27:09.112Z,2.17
2018-08-02T05:29:39.689Z,2.03
2018-08-02T05:32:11.045Z,2.80
2018-08-02T05:34:41.807Z,2.33
2018-08-02T05:37:13.279Z,3.20
2018-08-02T05:39:43.889Z,3.27
2018-08-02T05:42:14.442Z,2.80
2018-08-02T05:44:45.104Z,2.23
2018-08-02T05:47:15.813Z,2.20
2018-08-02T05:49:46.562Z,2.20
2018-08-02T05:52:17.165Z,2.00
2018-08-02T05:54:47.308Z,2.20
2018-08-02T05:57:17.713Z,2.60
2018-08-02T05:59:48.245Z,1.90
2018-08-02T06:02:18.921Z,1.70
2018-08-02T06:04:49.483Z,1.70
2018-08-02T06:07:20.377Z,1.90
2018-08-02T06:09:50.836Z,1.30
2018-08-02T06:12:28.070Z,1.50
2018-08-02T06:14:59.416Z,1.40
2018-08-02T06:17:29.924Z,1.50
2018-08-02T06:20:00.453Z,1.40
2018-08-02T06:22:31.033Z,1.17
2018-08-02T06:25:01.623Z,1.27
2018-08-02T06:27:32.162Z,1.70
2018-08-02T06:30:02.892Z,1.60
2018-08-02T06:32:33.437Z,1.93
2018-08-02T06:35:04.232Z,2.00
2018-08-02T06:37:34.767Z,2.03
2018-08-02T06:40:10.002Z,2.40
2018-08-02T06:42:40.794Z,2.10
2018-08-02T06:45:11.358Z,2.63
2018-08-02T06:47:44.426Z,2.50
2018-08-02T06:50:15.525Z,2.30
2018-08-02T06:52:46.145Z,2.67
2018-08-02T06:55:16.872Z,2.20
2018-08-02T06:57:47.144Z,3.00
2018-08-02T07:00:17.615Z,2.10
2018-08-02T07:02:48.175Z,2.30
2018-08-02T07:05:18.747Z,2.23
2018-08-02T07:07:49.326Z,2.20
2018-08-02T07:10:20.870Z,2.03
2018-08-02T07:12:51.591Z,2.00
2018-08-02T07:15:22.445Z,2.10
2018-08-02T07:17:52.946Z,1.90
2018-08-02T07:20:23.424Z,2.07
2018-08-02T07:22:54.077Z,1.90
2018-08-02T07:25:24.655Z,2.17
2018-08-02T07:27:55.275Z,1.80
2018-08-02T07:30:26.156Z,1.60
2018-08-02T07:32:56.706Z,1.93
2018-08-02T07:35:27.373Z,1.90
2018-08-02T07:37:58.017Z,1.60
2018-08-02T07:40:28.629Z,1.60
2018-08-02T07:42:59.234Z,1.27
2018-08-02T07:45:31.711Z,1.63
2018-08-02T07:48:02.362Z,1.67
2018-08-02T07:50:33.084Z,1.60
2018-08-02T07:53:03.564Z,1.63
2018-08-02T07:55:34.190Z,1.50
2018-08-02T07:58:04.940Z,1.97
2018-08-02T08:00:35.632Z,1.50
2018-08-02T08:03:06.084Z,1.60
2018-08-02T08:05:36.763Z,1.70
2018-08-02T08:08:07.452Z,1.50
2018-08-02T08:10:38.090Z,2.00
2018-08-02T08:13:08.849Z,1.77
2018-08-02T08:15:39.041Z,1.60
2018-08-02T08:18:10.124Z,2.40
2018-08-02T08:20:40.907Z,2.20
2018-08-02T08:23:11.533Z,1.63
2018-08-02T08:25:41.939Z,1.50
2018-08-02T08:28:12.652Z,2.03
2018-08-02T08:30:43.334Z,1.87
2018-08-02T08:33:13.880Z,2.40
2018-08-02T08:35:44.718Z,2.07
2018-08-02T08:38:15.337Z,2.27
2018-08-02T08:40:45.849Z,2.60
2018-08-02T08:43:16.317Z,2.00
2018-08-02T08:45:46.953Z,2.13
2018-08-02T08:48:17.623Z,2.60
2018-08-02T08:50:48.172Z,2.30
2018-08-02T08:53:19.053Z,2.70
2018-08-02T08:55:49.527Z,2.50
2018-08-02T08:58:20.356Z,2.60
2018-08-02T09:00:51.257Z,1.90
2018-08-02T09:03:22.061Z,2.30
2018-08-02T09:05:53.629Z,3.27
2018-08-02T09:08:24.246Z,2.40
2018-08-02T09:10:54.977Z,1.90
2018-08-02T09:13:25.607Z,2.20
2018-08-02T09:15:56.060Z,2.63
2018-08-02T09:18:26.594Z,1.87
2018-08-02T09:20:57.179Z,2.60
2018-08-02T09:23:27.797Z,2.73
2018-08-02T09:25:58.589Z,2.87
2018-08-02T09:28:29.283Z,3.43
2018-08-02T09:30:59.832Z,3.00
2018-08-02T09:33:30.456Z,3.10
2018-08-02T09:36:01.061Z,3.07
2018-08-02T09:38:31.778Z,4.03
2018-08-02T09:41:02.396Z,3.43
2018-08-02T09:43:33.092Z,3.70
2018-08-02T09:46:03.662Z,4.17
2018-08-02T09:48:34.635Z,3.40
2018-08-02T09:51:05.276Z,3.53
2018-08-02T09:53:35.971Z,4.10
2018-08-02T09:56:07.178Z,3.33
2018-08-02T09:58:37.609Z,2.67
2018-08-02T10:01:13.439Z,3.50
2018-08-02T10:03:44.100Z,2.50
2018-08-02T10:06:14.945Z,2.93
2018-08-02T10:08:45.561Z,3.10
2018-08-02T10:11:16.327Z,4.17
2018-08-02T10:13:47.037Z,3.57
2018-08-02T10:16:17.714Z,3.73
2018-08-02T10:18:48.856Z,3.30
2018-08-02T10:21:19.602Z,2.93
2018-08-02T10:23:50.214Z,3.20
2018-08-02T10:26:20.903Z,3.37
2018-08-02T10:28:51.467Z,3.50
2018-08-02T10:31:22.405Z,4.57
2018-08-02T10:33:53.106Z,3.80
2018-08-02T10:36:23.928Z,3.83
2018-08-02T10:38:54.851Z,4.23
2018-08-02T10:41:25.507Z,3.90
2018-08-02T10:43:56.113Z,3.50
2018-08-02T10:46:27.033Z,4.80
2018-08-02T10:48:57.615Z,3.50
2018-08-02T10:51:28.355Z,3.50
2018-08-02T10:53:59.127Z,3.77
2018-08-02T10:56:29.812Z,4.10
2018-08-02T10:59:00.395Z,4.40
2018-08-02T11:01:31.283Z,3.00
2018-08-02T11:04:01.736Z,3.50
2018-08-02T11:06:32.569Z,3.00
2018-08-02T11:09:03.475Z,4.10
2018-08-02T11:11:34.232Z,4.13
2018-08-02T11:14:10.577Z,4.23
2018-08-02T11:16:42.601Z,3.60
2018-08-02T11:19:13.308Z,4.00
2018-08-02T11:21:43.824Z,2.63
2018-08-02T11:24:14.442Z,2.70
2018-08-02T11:26:45.047Z,3.47
2018-08-02T11:29:16.104Z,2.47
2018-08-02T11:31:46.867Z,2.83
2018-08-02T11:34:17.489Z,3.33
2018-08-02T11:36:48.338Z,3.30
2018-08-02T11:39:18.835Z,3.33
2018-08-02T11:41:49.559Z,3.47
2018-08-02T11:44:20.426Z,3.73
2018-08-02T11:46:51.065Z,3.10
2018-08-02T11:49:21.553Z,3.73
2018-08-02T11:51:52.503Z,4.03
2018-08-02T11:54:23.122Z,3.43
2018-08-02T11:56:53.811Z,4.07
2018-08-02T11:59:24.442Z,3.70
2018-08-02T12:01:55.072Z,4.53
2018-08-02T12:04:25.716Z,3.90
2018-08-02T12:06:56.420Z,4.10
2018-08-02T12:09:27.291Z,3.10
2018-08-02T12:11:57.849Z,4.13
2018-08-02T12:14:28.509Z,3.13
2018-08-02T12:16:59.351Z,4.30
2018-08-02T12:19:29.916Z,3.67
2018-08-02T12:22:00.848Z,4.37
2018-08-02T12:24:31.556Z,4.13
2018-08-02T12:27:02.293Z,3.53
2018-08-02T12:29:33.104Z,3.93
2018-08-02T12:32:04.263Z,3.60
2018-08-02T12:34:35.422Z,3.67
2018-08-02T12:37:06.288Z,3.70
2018-08-02T12:39:36.484Z,3.50
2018-08-02T12:42:07.143Z,4.30
2018-08-02T12:44:37.957Z,3.97
2018-08-02T12:47:08.737Z,3.90
2018-08-02T12:49:39.746Z,4.47
2018-08-02T12:52:10.530Z,3.70
2018-08-02T12:54:41.114Z,3.20
2018-08-02T12:57:12.053Z,3.73
2018-08-02T12:59:43.702Z,3.13
2018-08-02T13:02:14.525Z,3.47
2018-08-02T13:04:45.165Z,3.90
2018-08-02T13:07:16.581Z,3.00
2018-08-02T13:09:47.342Z,4.57
2018-08-02T13:12:18.536Z,3.53
2018-08-02T13:14:49.217Z,3.40
2018-08-02T13:17:19.757Z,3.60
2018-08-02T13:19:50.582Z,3.90
2018-08-02T13:22:21.174Z,3.63
2018-08-02T13:24:51.875Z,3.60
2018-08-02T13:27:22.532Z,3.60
2018-08-02T13:29:53.131Z,4.17
2018-08-02T13:32:23.630Z,3.37
2018-08-02T13:34:54.290Z,4.00
2018-08-02T13:37:24.891Z,2.83
2018-08-02T13:39:56.015Z,3.93
2018-08-02T13:42:26.543Z,3.40
2018-08-02T13:44:57.179Z,3.57
2018-08-02T13:47:27.656Z,3.97
2018-08-02T13:49:58.333Z,3.97
2018-08-02T13:52:29.177Z,3.50
2018-08-02T13:54:59.647Z,3.73
2018-08-02T13:57:30.222Z,3.53
2018-08-02T14:00:00.794Z,3.70
2018-08-02T14:02:31.409Z,3.40
2018-08-02T14:05:02.036Z,4.03
2018-08-02T14:07:32.693Z,3.30
2018-08-02T14:10:03.290Z,3.50
2018-08-02T14:12:33.937Z,3.20
2018-08-02T14:15:05.159Z,3.60
2018-08-02T14:17:36.119Z,3.20
2018-08-02T14:20:06.622Z,4.10
2018-08-02T14:22:37.505Z,3.80
2018-08-02T14:25:08.202Z,4.13
2018-08-02T14:27:38.873Z,4.10
2018-08-02T14:30:11.160Z,3.80
2018-08-02T14:32:42.072Z,3.43
2018-08-02T14:35:12.749Z,3.50
2018-08-02T14:37:43.360Z,3.40
2018-08-02T14:40:14.050Z,3.50
2018-08-02T14:42:45.389Z,3.97
2018-08-02T14:45:15.924Z,3.37
2018-08-02T14:47:46.588Z,3.53
2018-08-02T14:50:16.713Z,3.40
2018-08-02T14:52:47.221Z,3.70
2018-08-02T14:55:18.201Z,3.63
2018-08-02T14:57:48.758Z,4.00
2018-08-02T15:00:19.320Z,3.10
2018-08-02T15:02:49.925Z,3.30
2018-08-02T15:05:22.170Z,3.57
2018-08-02T15:07:52.985Z,3.20
2018-08-02T15:10:23.798Z,3.10
2018-08-02T15:12:54.271Z,2.87
2018-08-02T15:15:24.832Z,3.50
2018-08-02T15:17:55.409Z,3.63
2018-08-02T15:20:26.119Z,3.70
2018-08-02T15:22:56.849Z,4.33
2018-08-02T15:25:28.234Z,3.60
2018-08-02T15:27:58.973Z,3.70
2018-08-02T15:30:29.587Z,3.70
2018-08-02T15:33:00.426Z,3.57
2018-08-02T15:35:31.603Z,3.67
2018-08-02T15:38:02.488Z,3.20
2018-08-02T15:40:33.247Z,4.17
2018-08-02T15:43:03.956Z,3.63
2018-08-02T15:45:34.557Z,3.60
2018-08-02T15:48:05.479Z,3.70
2018-08-02T15:50:36.084Z,3.77
2018-08-02T15:53:06.892Z,4.50
2018-08-02T15:55:37.449Z,4.17
2018-08-02T15:58:08.186Z,3.97
2018-08-02T16:00:38.987Z,3.53
2018-08-02T16:03:09.624Z,3.83
2018-08-02T16:05:41.177Z,3.70
2018-08-02T16:08:11.725Z,3.43
2018-08-02T16:10:42.437Z,4.20
2018-08-02T16:13:13.345Z,3.00
2018-08-02T16:15:43.900Z,3.90
2018-08-02T16:18:14.484Z,6.93
2018-08-02T16:20:45.276Z,5.13
2018-08-02T16:23:15.839Z,4.70
2018-08-02T16:25:46.480Z,4.30
2018-08-02T16:28:17.158Z,6.87
2018-08-02T16:30:48.117Z,3.70
2018-08-02T16:33:19.000Z,3.90
2018-08-02T16:35:49.608Z,3.43
2018-08-02T16:38:20.229Z,4.00
2018-08-02T16:40:50.842Z,3.50
2018-08-02T16:43:22.490Z,3.43
2018-08-02T16:45:53.335Z,3.37
2018-08-02T16:48:24.057Z,3.30
2018-08-02T16:50:54.530Z,3.37
2018-08-02T16:53:25.119Z,3.10
2018-08-02T16:55:55.699Z,3.97
2018-08-02T16:58:26.504Z,3.43
2018-08-02T17:00:56.963Z,3.67
2018-08-02T17:03:28.223Z,3.33
2018-08-02T17:05:58.803Z,4.00
2018-08-02T17:08:29.539Z,3.87
2018-08-02T17:11:00.273Z,3.47
2018-08-02T17:13:31.167Z,3.63
2018-08-02T17:16:01.749Z,4.00
2018-08-02T17:18:32.555Z,4.17
2018-08-02T17:21:03.223Z,4.20
2018-08-02T17:23:33.912Z,3.70
2018-08-02T17:26:05.283Z,4.13
2018-08-02T17:28:36.157Z,4.17
2018-08-02T17:31:06.807Z,4.13
2018-08-02T17:33:37.596Z,4.60
2018-08-02T17:36:08.326Z,3.70
2018-08-02T17:38:39.051Z,3.77
2018-08-02T17:41:10.454Z,4.30
2018-08-02T17:43:41.398Z,4.20
2018-08-02T17:46:11.796Z,4.33
2018-08-02T17:48:42.530Z,3.93
2018-08-02T17:51:13.271Z,4.70
2018-08-02T17:53:44.062Z,4.63
2018-08-02T17:56:14.847Z,3.80
2018-08-02T17:58:45.525Z,4.40
2018-08-02T18:01:16.146Z,4.03
2018-08-02T18:03:46.807Z,4.70
2018-08-02T18:06:17.499Z,4.90
2018-08-02T18:08:48.349Z,4.80
2018-08-02T18:11:18.954Z,4.60
2018-08-02T18:13:49.538Z,4.57
2018-08-02T18:16:20.374Z,4.13
2018-08-02T18:18:50.905Z,4.70
2018-08-02T18:21:21.518Z,4.37
2018-08-02T18:23:52.300Z,4.63
2018-08-02T18:26:23.007Z,4.47
2018-08-02T18:28:53.677Z,4.37
2018-08-02T18:31:24.723Z,6.33
2018-08-02T18:33:55.313Z,5.50
2018-08-02T18:36:25.920Z,4.27
2018-08-02T18:38:57.276Z,5.03
2018-08-02T18:41:27.790Z,4.97
2018-08-02T18:43:57.977Z,4.87
2018-08-02T18:46:28.499Z,4.60
2018-08-02T18:48:59.097Z,4.70
2018-08-02T18:51:29.564Z,4.33
2018-08-02T18:54:00.150Z,4.80
2018-08-02T18:56:30.889Z,5.10
2018-08-02T18:59:01.688Z,4.17
2018-08-02T19:01:32.383Z,4.40
2018-08-02T19:04:02.999Z,4.30
2018-08-02T19:06:33.734Z,4.80
2018-08-02T19:09:05.739Z,4.90
2018-08-02T19:11:36.391Z,4.20
2018-08-02T19:14:07.052Z,4.67
2018-08-02T19:16:38.351Z,4.70
2018-08-02T19:19:09.039Z,4.47
2018-08-02T19:21:39.770Z,4.70
2018-08-02T19:24:10.547Z,4.77
2018-08-02T19:26:41.261Z,4.80
2018-08-02T19:29:11.962Z,5.03
2018-08-02T19:31:42.931Z,3.27
2018-08-02T19:34:13.770Z,5.03
2018-08-02T19:36:44.485Z,4.60
2018-08-02T19:39:15.130Z,4.60
2018-08-02T19:41:45.863Z,4.77
2018-08-02T19:44:16.721Z,5.30
2018-08-02T19:46:47.414Z,4.97
2018-08-02T19:49:18.321Z,4.70
2018-08-02T19:51:48.986Z,4.37
2018-08-02T19:54:19.838Z,3.97
2018-08-02T19:56:50.464Z,3.83
2018-08-02T19:59:21.113Z,4.00
2018-08-02T20:01:51.802Z,4.67
2018-08-02T20:04:22.538Z,4.30
2018-08-02T20:06:52.836Z,3.70
2018-08-02T20:09:22.920Z,3.53
2018-08-02T20:11:53.634Z,3.53
2018-08-02T20:14:24.357Z,3.60
2018-08-02T20:16:54.697Z,3.77
2018-08-02T20:19:25.225Z,3.47
2018-08-02T20:21:56.080Z,3.20
2018-08-02T20:24:26.612Z,3.20
2018-08-02T20:26:57.236Z,4.17
2018-08-02T20:29:28.083Z,3.23
2018-08-02T20:31:58.762Z,3.77
2018-08-02T20:34:29.495Z,4.03
2018-08-02T20:37:00.089Z,3.40
2018-08-02T20:39:30.841Z,3.60
2018-08-02T20:42:01.521Z,3.20
2018-08-02T20:44:32.238Z,3.60
2018-08-02T20:47:02.501Z,2.40
2018-08-02T20:49:33.158Z,4.00
2018-08-02T20:52:03.871Z,3.93
2018-08-02T20:54:34.571Z,2.97
2018-08-02T20:57:05.210Z,2.90
2018-08-02T20:59:36.168Z,2.63
2018-08-02T21:02:07.040Z,3.07
2018-08-02T21:04:38.569Z,3.13
2018-08-02T21:07:09.281Z,3.30
2018-08-02T21:09:40.107Z,2.97
2018-08-02T21:12:10.782Z,3.13
2018-08-02T21:14:41.360Z,4.63
2018-08-02T21:17:11.936Z,3.10
2018-08-02T21:19:43.554Z,3.20
2018-08-02T21:22:14.191Z,3.13
2018-08-02T21:24:44.941Z,2.70
2018-08-02T21:27:15.599Z,3.00
2018-08-02T21:29:46.168Z,2.73
2018-08-02T21:32:16.418Z,3.10
2018-08-02T21:34:47.089Z,3.53
2018-08-02T21:37:17.977Z,3.30
2018-08-02T21:39:48.745Z,3.17
2018-08-02T21:42:19.527Z,3.30
2018-08-02T21:44:50.159Z,3.17
2018-08-02T21:47:20.933Z,2.67
2018-08-02T21:49:51.628Z,5.30
2018-08-02T21:52:22.196Z,4.10
2018-08-02T21:54:53.140Z,3.90
2018-08-02T21:57:24.596Z,3.80
2018-08-02T21:59:55.202Z,3.70
2018-08-02T22:02:25.705Z,3.37
2018-08-02T22:04:56.072Z,3.57
2018-08-02T22:07:26.760Z,2.87
2018-08-02T22:09:57.341Z,3.00
2018-08-02T22:12:32.908Z,3.23
2018-08-02T22:15:08.884Z,3.70
2018-08-02T22:17:40.596Z,3.20
2018-08-02T22:20:11.404Z,4.53
2018-08-02T22:22:42.065Z,2.93
2018-08-02T22:25:12.699Z,2.90
2018-08-02T22:27:43.281Z,2.90
2018-08-02T22:30:13.978Z,3.27
2018-08-02T22:32:44.692Z,3.23
2018-08-02T22:35:15.166Z,3.57
2018-08-02T22:37:46.006Z,3.10
2018-08-02T22:40:16.693Z,3.63
2018-08-02T22:42:47.343Z,5.00
2018-08-02T22:45:17.900Z,4.17
2018-08-02T22:47:48.543Z,4.67
2018-08-02T22:50:18.760Z,3.63
2018-08-02T22:52:49.295Z,4.10
2018-08-02T22:55:19.838Z,3.43
2018-08-02T22:57:50.470Z,3.17
2018-08-02T23:00:21.268Z,3.40
2018-08-02T23:02:51.926Z,3.03
2018-08-02T23:05:22.477Z,3.30
2018-08-02T23:07:52.763Z,3.30
2018-08-02T23:10:23.291Z,3.60
2018-08-02T23:12:54.215Z,3.80
2018-08-02T23:15:24.898Z,3.63
2018-08-02T23:17:55.371Z,4.17
2018-08-02T23:20:26.020Z,4.03
2018-08-02T23:23:03.165Z,4.83
2018-08-02T23:25:33.866Z,3.47
2018-08-02T23:28:04.560Z,4.07
2018-08-02T23:30:35.129Z,3.70
2018-08-02T23:33:05.361Z,4.07
2018-08-02T23:35:35.480Z,4.20
2018-08-02T23:38:05.961Z,3.60
2018-08-02T23:40:36.466Z,4.27
2018-08-02T23:43:07.151Z,3.93
2018-08-02T23:45:37.598Z,4.10
2018-08-02T23:48:08.208Z,4.30
2018-08-02T23:50:38.837Z,4.10
2018-08-02T23:53:09.587Z,4.03
2018-08-02T23:55:40.172Z,4.10
2018-08-02T23:58:10.884Z,4.50
